sensor_id;sensor_type;location;lat;lon;timestamp;pressure;altitude;pressure_sealevel;temperature;humidity
19795;BME280;10057;59.402;17.866;2022-08-01T00:00:01;101123.50;;;17.77;56.69
19795;BME280;10057;59.402;17.866;2022-08-01T00:02:30;101117.28;;;17.77;56.74
19795;BME280;10057;59.402;17.866;2022-08-01T00:04:57;101115.56;;;17.76;56.54
19795;BME280;10057;59.402;17.866;2022-08-01T00:07:24;101121.28;;;17.70;56.67
19795;BME280;10057;59.402;17.866;2022-08-01T00:09:51;101119.84;;;17.64;56.98
19795;BME280;10057;59.402;17.866;2022-08-01T00:12:18;101113.09;;;17.57;57.00
19795;BME280;10057;59.402;17.866;2022-08-01T00:14:44;101116.16;;;17.51;57.08
19795;BME280;10057;59.402;17.866;2022-08-01T00:17:11;101117.41;;;17.45;57.38
19795;BME280;10057;59.402;17.866;2022-08-01T00:19:38;101115.50;;;17.47;57.47
19795;BME280;10057;59.402;17.866;2022-08-01T00:22:04;101112.72;;;17.49;57.70
19795;BME280;10057;59.402;17.866;2022-08-01T00:24:31;101105.63;;;17.48;57.52
19795;BME280;10057;59.402;17.866;2022-08-01T00:26:58;101108.38;;;17.46;57.73
19795;BME280;10057;59.402;17.866;2022-08-01T00:29:25;101106.84;;;17.42;57.54
19795;BME280;10057;59.402;17.866;2022-08-01T00:32:11;101108.09;;;17.37;57.79
19795;BME280;10057;59.402;17.866;2022-08-01T00:34:38;101098.47;;;17.33;57.97
19795;BME280;10057;59.402;17.866;2022-08-01T00:37:05;101105.78;;;17.31;57.97
19795;BME280;10057;59.402;17.866;2022-08-01T00:39:31;101102.41;;;17.27;58.20
19795;BME280;10057;59.402;17.866;2022-08-01T00:42:09;101102.50;;;17.25;58.09
19795;BME280;10057;59.402;17.866;2022-08-01T00:44:37;101099.91;;;17.24;58.17
19795;BME280;10057;59.402;17.866;2022-08-01T00:47:04;101098.28;;;17.21;58.35
19795;BME280;10057;59.402;17.866;2022-08-01T00:49:31;101097.41;;;17.21;58.36
19795;BME280;10057;59.402;17.866;2022-08-01T00:51:59;101101.06;;;17.20;58.53
19795;BME280;10057;59.402;17.866;2022-08-01T00:54:26;101097.59;;;17.18;58.44
19795;BME280;10057;59.402;17.866;2022-08-01T00:56:54;101095.25;;;17.12;58.64
19795;BME280;10057;59.402;17.866;2022-08-01T00:59:22;101091.22;;;17.04;58.60
19795;BME280;10057;59.402;17.866;2022-08-01T01:01:51;101093.22;;;17.01;58.82
19795;BME280;10057;59.402;17.866;2022-08-01T01:04:27;101083.63;;;16.97;58.95
19795;BME280;10057;59.402;17.866;2022-08-01T01:09:51;101079.66;;;16.88;58.99
19795;BME280;10057;59.402;17.866;2022-08-01T01:12:27;101080.03;;;16.82;59.19
19795;BME280;10057;59.402;17.866;2022-08-01T01:15:18;101080.22;;;16.79;59.24
19795;BME280;10057;59.402;17.866;2022-08-01T01:18:00;101075.91;;;16.76;59.37
19795;BME280;10057;59.402;17.866;2022-08-01T01:20:35;101073.28;;;16.75;59.39
19795;BME280;10057;59.402;17.866;2022-08-01T01:23:26;101073.34;;;16.73;59.34
19795;BME280;10057;59.402;17.866;2022-08-01T01:29:00;101071.72;;;16.71;59.67
19795;BME280;10057;59.402;17.866;2022-08-01T01:31:28;101071.72;;;16.71;59.70
19795;BME280;10057;59.402;17.866;2022-08-01T01:33:58;101076.31;;;16.69;59.79
19795;BME280;10057;59.402;17.866;2022-08-01T01:36:26;101071.03;;;16.67;60.06
19795;BME280;10057;59.402;17.866;2022-08-01T01:38:55;101064.97;;;16.64;59.93
19795;BME280;10057;59.402;17.866;2022-08-01T01:41:23;101061.72;;;16.58;60.34
19795;BME280;10057;59.402;17.866;2022-08-01T01:43:50;101067.31;;;16.54;60.44
19795;BME280;10057;59.402;17.866;2022-08-01T01:46:22;101059.56;;;16.49;60.73
19795;BME280;10057;59.402;17.866;2022-08-01T01:48:50;101056.09;;;16.47;60.77
19795;BME280;10057;59.402;17.866;2022-08-01T01:51:18;101055.16;;;16.48;60.94
19795;BME280;10057;59.402;17.866;2022-08-01T01:53:48;101055.91;;;16.50;61.16
19795;BME280;10057;59.402;17.866;2022-08-01T01:56:17;101049.53;;;16.53;61.02
19795;BME280;10057;59.402;17.866;2022-08-01T01:58:45;101049.63;;;16.51;61.04
19795;BME280;10057;59.402;17.866;2022-08-01T02:01:15;101046.00;;;16.52;61.30
19795;BME280;10057;59.402;17.866;2022-08-01T02:04:02;101046.00;;;16.52;61.21
19795;BME280;10057;59.402;17.866;2022-08-01T02:06:30;101048.66;;;16.52;61.32
19795;BME280;10057;59.402;17.866;2022-08-01T02:09:00;101044.28;;;16.51;61.55
19795;BME280;10057;59.402;17.866;2022-08-01T02:11:27;101050.66;;;16.49;61.68
19795;BME280;10057;59.402;17.866;2022-08-01T02:14:01;101047.13;;;16.48;61.73
19795;BME280;10057;59.402;17.866;2022-08-01T02:16:33;101040.69;;;16.51;61.80
19795;BME280;10057;59.402;17.866;2022-08-01T02:19:00;101046.00;;;16.52;61.81
19795;BME280;10057;59.402;17.866;2022-08-01T02:21:30;101050.66;;;16.49;61.98
19795;BME280;10057;59.402;17.866;2022-08-01T02:24:04;101043.75;;;16.45;62.09
19795;BME280;10057;59.402;17.866;2022-08-01T02:26:39;101043.81;;;16.43;62.23
19795;BME280;10057;59.402;17.866;2022-08-01T02:29:10;101038.31;;;16.46;62.43
19795;BME280;10057;59.402;17.866;2022-08-01T02:31:40;101036.47;;;16.47;62.35
19795;BME280;10057;59.402;17.866;2022-08-01T02:34:14;101040.03;;;16.47;62.41
19795;BME280;10057;59.402;17.866;2022-08-01T02:36:43;101040.19;;;16.44;62.71
19795;BME280;10057;59.402;17.866;2022-08-01T02:39:13;101039.44;;;16.42;62.89
19795;BME280;10057;59.402;17.866;2022-08-01T02:41:43;101028.09;;;16.37;63.01
19795;BME280;10057;59.402;17.866;2022-08-01T02:44:17;101027.34;;;16.35;63.24
19795;BME280;10057;59.402;17.866;2022-08-01T02:46:52;101029.94;;;16.37;63.27
19795;BME280;10057;59.402;17.866;2022-08-01T02:49:21;101033.38;;;16.39;63.30
19795;BME280;10057;59.402;17.866;2022-08-01T02:51:50;101024.66;;;16.35;63.47
19795;BME280;10057;59.402;17.866;2022-08-01T02:54:20;101025.69;;;16.32;63.64
19795;BME280;10057;59.402;17.866;2022-08-01T02:56:50;101027.69;;;16.29;63.79
19795;BME280;10057;59.402;17.866;2022-08-01T02:59:20;101022.34;;;16.29;64.07
19795;BME280;10057;59.402;17.866;2022-08-01T03:01:53;101020.78;;;16.25;64.03
19795;BME280;10057;59.402;17.866;2022-08-01T03:04:23;101021.97;;;16.19;64.16
19795;BME280;10057;59.402;17.866;2022-08-01T03:06:53;101022.16;;;16.16;64.46
19795;BME280;10057;59.402;17.866;2022-08-01T03:09:21;101023.19;;;16.14;64.69
19795;BME280;10057;59.402;17.866;2022-08-01T03:11:49;101024.94;;;16.15;64.83
19795;BME280;10057;59.402;17.866;2022-08-01T03:14:17;101023.97;;;16.16;64.77
19795;BME280;10057;59.402;17.866;2022-08-01T03:16:48;101021.22;;;16.17;64.87
19795;BME280;10057;59.402;17.866;2022-08-01T03:19:18;101027.28;;;16.21;65.15
19795;BME280;10057;59.402;17.866;2022-08-01T03:21:46;101019.03;;;16.24;65.43
19795;BME280;10057;59.402;17.866;2022-08-01T03:24:16;101018.97;;;16.25;65.45
19795;BME280;10057;59.402;17.866;2022-08-01T03:26:44;101013.34;;;16.30;65.42
19795;BME280;10057;59.402;17.866;2022-08-01T03:29:17;101008.69;;;16.33;65.44
19795;BME280;10057;59.402;17.866;2022-08-01T03:31:48;101011.97;;;16.39;65.47
19795;BME280;10057;59.402;17.866;2022-08-01T03:34:15;101012.66;;;16.42;65.56
19795;BME280;10057;59.402;17.866;2022-08-01T03:36:46;101015.22;;;16.44;65.61
19795;BME280;10057;59.402;17.866;2022-08-01T03:39:16;101012.47;;;16.45;65.77
19795;BME280;10057;59.402;17.866;2022-08-01T03:41:50;101014.13;;;16.48;65.93
19795;BME280;10057;59.402;17.866;2022-08-01T03:44:31;101011.34;;;16.49;65.89
19795;BME280;10057;59.402;17.866;2022-08-01T03:47:02;101019.22;;;16.52;66.16
19795;BME280;10057;59.402;17.866;2022-08-01T03:49:34;101015.56;;;16.53;66.11
19795;BME280;10057;59.402;17.866;2022-08-01T03:52:04;101011.88;;;16.56;66.12
19795;BME280;10057;59.402;17.866;2022-08-01T03:54:36;101004.59;;;16.58;66.25
19795;BME280;10057;59.402;17.866;2022-08-01T03:57:04;101013.34;;;16.62;66.26
19795;BME280;10057;59.402;17.866;2022-08-01T03:59:32;101006.06;;;16.64;66.36
19795;BME280;10057;59.402;17.866;2022-08-01T04:02:00;101007.75;;;16.65;66.20
19795;BME280;10057;59.402;17.866;2022-08-01T04:04:28;101014.00;;;16.65;66.34
19795;BME280;10057;59.402;17.866;2022-08-01T04:06:56;101015.63;;;16.68;66.53
19795;BME280;10057;59.402;17.866;2022-08-01T04:09:22;101017.09;;;16.73;66.63
19795;BME280;10057;59.402;17.866;2022-08-01T04:11:49;101007.09;;;16.77;66.64
19795;BME280;10057;59.402;17.866;2022-08-01T04:14:16;101000.53;;;16.83;66.92
19795;BME280;10057;59.402;17.866;2022-08-01T04:16:43;101017.09;;;16.89;66.82
19795;BME280;10057;59.402;17.866;2022-08-01T04:19:10;101006.97;;;16.94;66.82
19795;BME280;10057;59.402;17.866;2022-08-01T04:21:37;101011.84;;;17.02;66.99
19795;BME280;10057;59.402;17.866;2022-08-01T04:24:17;101002.47;;;17.09;67.10
19795;BME280;10057;59.402;17.866;2022-08-01T04:26:46;101009.13;;;17.18;67.00
19795;BME280;10057;59.402;17.866;2022-08-01T04:29:15;101009.44;;;17.27;67.08
19795;BME280;10057;59.402;17.866;2022-08-01T04:31:45;101008.09;;;17.35;67.01
19795;BME280;10057;59.402;17.866;2022-08-01T04:34:15;101000.44;;;17.43;67.22
19795;BME280;10057;59.402;17.866;2022-08-01T04:36:43;100995.38;;;17.52;67.11
19795;BME280;10057;59.402;17.866;2022-08-01T04:39:10;100994.81;;;17.62;67.05
19795;BME280;10057;59.402;17.866;2022-08-01T04:41:38;100984.56;;;17.68;66.93
19795;BME280;10057;59.402;17.866;2022-08-01T04:44:06;100996.63;;;17.75;66.93
19795;BME280;10057;59.402;17.866;2022-08-01T04:46:34;100987.13;;;17.84;66.59
19795;BME280;10057;59.402;17.866;2022-08-01T04:49:06;100995.47;;;17.94;66.77
19795;BME280;10057;59.402;17.866;2022-08-01T04:51:32;100987.69;;;18.04;66.46
19795;BME280;10057;59.402;17.866;2022-08-01T04:53:59;100994.31;;;18.12;66.25
19795;BME280;10057;59.402;17.866;2022-08-01T04:56:27;100993.69;;;18.21;66.20
19795;BME280;10057;59.402;17.866;2022-08-01T04:58:54;100988.78;;;18.28;66.03
19795;BME280;10057;59.402;17.866;2022-08-01T05:01:48;100989.91;;;18.38;65.66
19795;BME280;10057;59.402;17.866;2022-08-01T05:04:15;100992.19;;;18.44;65.60
19795;BME280;10057;59.402;17.866;2022-08-01T05:06:42;100986.28;;;18.52;65.29
19795;BME280;10057;59.402;17.866;2022-08-01T05:09:09;100977.84;;;18.58;65.12
19795;BME280;10057;59.402;17.866;2022-08-01T05:11:35;100976.44;;;18.65;64.84
19795;BME280;10057;59.402;17.866;2022-08-01T05:14:02;100981.44;;;18.72;64.63
19795;BME280;10057;59.402;17.866;2022-08-01T05:16:29;100976.53;;;18.78;64.52
19795;BME280;10057;59.402;17.866;2022-08-01T05:18:55;100984.06;;;18.86;64.22
19795;BME280;10057;59.402;17.866;2022-08-01T05:21:22;100979.13;;;18.92;64.24
19795;BME280;10057;59.402;17.866;2022-08-01T05:23:48;100980.44;;;19.00;63.86
19795;BME280;10057;59.402;17.866;2022-08-01T05:26:15;100978.31;;;19.05;63.58
19795;BME280;10057;59.402;17.866;2022-08-01T05:28:42;100975.41;;;19.08;63.35
19795;BME280;10057;59.402;17.866;2022-08-01T05:31:09;100971.53;;;19.12;63.16
19795;BME280;10057;59.402;17.866;2022-08-01T05:33:36;100969.50;;;19.15;63.02
19795;BME280;10057;59.402;17.866;2022-08-01T05:36:02;100966.47;;;19.20;62.99
19795;BME280;10057;59.402;17.866;2022-08-01T05:38:29;100964.34;;;19.25;62.80
19795;BME280;10057;59.402;17.866;2022-08-01T05:40:56;100966.56;;;19.31;62.50
19795;BME280;10057;59.402;17.866;2022-08-01T05:43:22;100964.31;;;19.38;62.43
19795;BME280;10057;59.402;17.866;2022-08-01T05:45:54;100967.44;;;19.45;62.14
19795;BME280;10057;59.402;17.866;2022-08-01T05:48:21;100958.06;;;19.50;61.66
19795;BME280;10057;59.402;17.866;2022-08-01T05:50:47;100962.38;;;19.53;61.67
19795;BME280;10057;59.402;17.866;2022-08-01T05:53:14;100961.06;;;19.58;61.42
19795;BME280;10057;59.402;17.866;2022-08-01T05:55:40;100967.09;;;19.62;61.20
19795;BME280;10057;59.402;17.866;2022-08-01T05:58:07;100964.97;;;19.67;61.00
19795;BME280;10057;59.402;17.866;2022-08-01T06:00:37;100961.09;;;19.71;61.03
19795;BME280;10057;59.402;17.866;2022-08-01T06:03:04;100959.88;;;19.75;60.59
19795;BME280;10057;59.402;17.866;2022-08-01T06:05:31;100963.22;;;19.79;60.33
19795;BME280;10057;59.402;17.866;2022-08-01T06:07:57;100959.44;;;19.81;59.89
19795;BME280;10057;59.402;17.866;2022-08-01T06:10:24;100954.69;;;19.85;59.90
19795;BME280;10057;59.402;17.866;2022-08-01T06:12:51;100954.34;;;19.89;59.63
19795;BME280;10057;59.402;17.866;2022-08-01T06:15:17;100951.44;;;19.93;59.26
19795;BME280;10057;59.402;17.866;2022-08-01T06:17:44;100951.13;;;19.97;59.26
19795;BME280;10057;59.402;17.866;2022-08-01T06:20:11;100950.78;;;20.02;58.93
19795;BME280;10057;59.402;17.866;2022-08-01T06:22:38;100951.31;;;20.07;58.53
19795;BME280;10057;59.402;17.866;2022-08-01T06:25:06;100947.41;;;20.11;58.40
19795;BME280;10057;59.402;17.866;2022-08-01T06:27:36;100948.91;;;20.15;58.10
19795;BME280;10057;59.402;17.866;2022-08-01T06:30:04;100943.28;;;20.18;57.82
19795;BME280;10057;59.402;17.866;2022-08-01T06:32:31;100956.75;;;20.18;57.72
19795;BME280;10057;59.402;17.866;2022-08-01T06:34:58;100954.06;;;20.18;57.75
19795;BME280;10057;59.402;17.866;2022-08-01T06:37:29;100949.66;;;20.17;57.47
19795;BME280;10057;59.402;17.866;2022-08-01T06:40:00;100939.75;;;20.18;57.83
19795;BME280;10057;59.402;17.866;2022-08-01T06:42:27;100953.94;;;20.20;58.01
19795;BME280;10057;59.402;17.866;2022-08-01T06:44:54;100953.84;;;20.21;57.24
19795;BME280;10057;59.402;17.866;2022-08-01T06:47:20;100952.84;;;20.22;57.44
19795;BME280;10057;59.402;17.866;2022-08-01T06:49:47;100949.19;;;20.23;57.38
19795;BME280;10057;59.402;17.866;2022-08-01T06:52:13;100952.63;;;20.25;57.15
19795;BME280;10057;59.402;17.866;2022-08-01T06:54:40;100953.38;;;20.27;56.96
19795;BME280;10057;59.402;17.866;2022-08-01T06:57:07;100951.31;;;20.31;57.06
19795;BME280;10057;59.402;17.866;2022-08-01T06:59:33;100948.72;;;20.29;56.74
19795;BME280;10057;59.402;17.866;2022-08-01T07:02:00;100955.09;;;20.28;56.78
19795;BME280;10057;59.402;17.866;2022-08-01T07:04:28;100952.28;;;20.30;56.65
19795;BME280;10057;59.402;17.866;2022-08-01T07:06:54;100954.03;;;20.31;56.66
19795;BME280;10057;59.402;17.866;2022-08-01T07:09:21;100957.44;;;20.33;56.51
19795;BME280;10057;59.402;17.866;2022-08-01T07:11:48;100957.22;;;20.36;56.24
19795;BME280;10057;59.402;17.866;2022-08-01T07:14:14;100954.16;;;20.41;55.99
19795;BME280;10057;59.402;17.866;2022-08-01T07:16:41;100958.38;;;20.45;56.16
19795;BME280;10057;59.402;17.866;2022-08-01T07:19:08;100950.78;;;20.50;56.00
19795;BME280;10057;59.402;17.866;2022-08-01T07:21:34;100946.69;;;20.57;56.01
19795;BME280;10057;59.402;17.866;2022-08-01T07:24:11;100936.28;;;20.64;56.08
19795;BME280;10057;59.402;17.866;2022-08-01T07:26:42;100938.41;;;20.71;56.28
19795;BME280;10057;59.402;17.866;2022-08-01T07:29:23;100943.09;;;20.80;56.13
19795;BME280;10057;59.402;17.866;2022-08-01T07:31:55;100936.25;;;20.88;55.67
19795;BME280;10057;59.402;17.866;2022-08-01T07:34:23;100935.78;;;20.94;55.56
19795;BME280;10057;59.402;17.866;2022-08-01T07:36:51;100937.50;;;20.95;55.12
19795;BME280;10057;59.402;17.866;2022-08-01T07:39:18;100944.34;;;20.99;54.68
19795;BME280;10057;59.402;17.866;2022-08-01T07:41:45;100937.78;;;21.03;54.25
19795;BME280;10057;59.402;17.866;2022-08-01T07:44:32;100942.94;;;21.06;53.79
19795;BME280;10057;59.402;17.866;2022-08-01T07:46:58;100935.56;;;21.08;53.72
19795;BME280;10057;59.402;17.866;2022-08-01T07:49:25;100941.47;;;21.13;53.45
19795;BME280;10057;59.402;17.866;2022-08-01T07:51:52;100937.53;;;21.17;53.42
19795;BME280;10057;59.402;17.866;2022-08-01T07:54:29;100944.53;;;21.20;53.37
19795;BME280;10057;59.402;17.866;2022-08-01T07:56:59;100930.91;;;21.21;53.07
19795;BME280;10057;59.402;17.866;2022-08-01T07:59:26;100943.31;;;21.24;52.73
19795;BME280;10057;59.402;17.866;2022-08-01T08:01:53;100927.97;;;21.24;52.70
19795;BME280;10057;59.402;17.866;2022-08-01T08:04:20;100935.84;;;21.27;52.42
19795;BME280;10057;59.402;17.866;2022-08-01T08:06:46;100930.44;;;21.27;52.15
19795;BME280;10057;59.402;17.866;2022-08-01T08:09:14;100929.44;;;21.28;52.28
19795;BME280;10057;59.402;17.866;2022-08-01T08:11:43;100932.16;;;21.28;51.71
19795;BME280;10057;59.402;17.866;2022-08-01T08:14:16;100933.00;;;21.29;51.59
19795;BME280;10057;59.402;17.866;2022-08-01T08:16:44;100929.22;;;21.32;51.59
19795;BME280;10057;59.402;17.866;2022-08-01T08:19:11;100933.41;;;21.36;51.80
19795;BME280;10057;59.402;17.866;2022-08-01T08:21:38;100933.41;;;21.47;51.84
19795;BME280;10057;59.402;17.866;2022-08-01T08:24:05;100921.03;;;21.56;51.48
19795;BME280;10057;59.402;17.866;2022-08-01T08:26:55;100913.06;;;21.65;51.09
19795;BME280;10057;59.402;17.866;2022-08-01T08:29:23;100913.28;;;21.73;51.11
19795;BME280;10057;59.402;17.866;2022-08-01T08:31:52;100915.34;;;21.81;50.75
19795;BME280;10057;59.402;17.866;2022-08-01T08:34:19;100918.41;;;21.88;50.79
19795;BME280;10057;59.402;17.866;2022-08-01T08:36:48;100916.94;;;21.95;50.85
19795;BME280;10057;59.402;17.866;2022-08-01T08:39:15;100915.31;;;22.04;50.76
19795;BME280;10057;59.402;17.866;2022-08-01T08:41:46;100920.34;;;22.19;50.51
19795;BME280;10057;59.402;17.866;2022-08-01T08:44:15;100911.31;;;22.30;50.30
19795;BME280;10057;59.402;17.866;2022-08-01T08:46:48;100909.69;;;22.39;50.13
19795;BME280;10057;59.402;17.866;2022-08-01T08:49:22;100904.38;;;22.48;49.66
19795;BME280;10057;59.402;17.866;2022-08-01T08:51:51;100907.28;;;22.57;49.47
19795;BME280;10057;59.402;17.866;2022-08-01T08:54:21;100907.47;;;22.65;49.41
19795;BME280;10057;59.402;17.866;2022-08-01T08:56:58;100906.22;;;22.69;49.10
19795;BME280;10057;59.402;17.866;2022-08-01T08:59:26;100901.41;;;22.73;49.25
19795;BME280;10057;59.402;17.866;2022-08-01T09:01:56;100908.00;;;22.80;49.12
19795;BME280;10057;59.402;17.866;2022-08-01T09:04:25;100907.38;;;22.87;48.65
19795;BME280;10057;59.402;17.866;2022-08-01T09:06:53;100906.97;;;22.92;48.41
19795;BME280;10057;59.402;17.866;2022-08-01T09:09:21;100903.03;;;22.96;48.21
19795;BME280;10057;59.402;17.866;2022-08-01T09:11:49;100898.09;;;23.01;48.16
19795;BME280;10057;59.402;17.866;2022-08-01T09:14:30;100899.97;;;23.10;47.97
19795;BME280;10057;59.402;17.866;2022-08-01T09:17:09;100897.59;;;23.17;48.06
19795;BME280;10057;59.402;17.866;2022-08-01T09:19:42;100897.50;;;23.28;47.50
19795;BME280;10057;59.402;17.866;2022-08-01T09:22:17;100891.25;;;23.37;47.29
19795;BME280;10057;59.402;17.866;2022-08-01T09:25:03;100898.31;;;23.50;47.21
19795;BME280;10057;59.402;17.866;2022-08-01T09:27:32;100888.75;;;23.55;46.65
19795;BME280;10057;59.402;17.866;2022-08-01T09:32:59;100891.34;;;23.57;46.20
19795;BME280;10057;59.402;17.866;2022-08-01T09:35:35;100895.91;;;23.56;46.03
19795;BME280;10057;59.402;17.866;2022-08-01T09:38:20;100885.06;;;23.56;46.28
19795;BME280;10057;59.402;17.866;2022-08-01T09:40:53;100891.06;;;23.60;46.16
19795;BME280;10057;59.402;17.866;2022-08-01T09:43:23;100890.22;;;23.59;45.79
19795;BME280;10057;59.402;17.866;2022-08-01T09:45:50;100899.31;;;23.58;45.63
19795;BME280;10057;59.402;17.866;2022-08-01T09:48:19;100888.91;;;23.54;45.43
19795;BME280;10057;59.402;17.866;2022-08-01T09:50:54;100890.78;;;23.53;45.44
19795;BME280;10057;59.402;17.866;2022-08-01T09:53:46;100884.50;;;23.53;45.34
19795;BME280;10057;59.402;17.866;2022-08-01T09:56:19;100876.22;;;23.54;45.41
19795;BME280;10057;59.402;17.866;2022-08-01T09:58:50;100874.94;;;23.58;45.48
19795;BME280;10057;59.402;17.866;2022-08-01T10:01:25;100872.69;;;23.63;45.32
19795;BME280;10057;59.402;17.866;2022-08-01T10:04:06;100866.28;;;23.64;45.06
19795;BME280;10057;59.402;17.866;2022-08-01T10:06:36;100865.88;;;23.69;45.09
19795;BME280;10057;59.402;17.866;2022-08-01T10:09:03;100868.63;;;23.79;44.95
19795;BME280;10057;59.402;17.866;2022-08-01T10:11:31;100869.50;;;23.89;45.02
19795;BME280;10057;59.402;17.866;2022-08-01T10:14:02;100868.66;;;23.98;45.12
19795;BME280;10057;59.402;17.866;2022-08-01T10:16:30;100854.84;;;24.11;44.85
19795;BME280;10057;59.402;17.866;2022-08-01T10:19:05;100851.56;;;24.17;44.62
19795;BME280;10057;59.402;17.866;2022-08-01T10:21:41;100849.28;;;24.22;44.34
19795;BME280;10057;59.402;17.866;2022-08-01T10:24:26;100853.97;;;24.30;44.54
19795;BME280;10057;59.402;17.866;2022-08-01T10:27:01;100853.41;;;24.36;44.32
19795;BME280;10057;59.402;17.866;2022-08-01T10:32:23;100851.59;;;24.46;44.08
19795;BME280;10057;59.402;17.866;2022-08-01T10:34:54;100856.00;;;24.47;44.13
19795;BME280;10057;59.402;17.866;2022-08-01T10:37:21;100853.00;;;24.50;43.97
19795;BME280;10057;59.402;17.866;2022-08-01T10:39:53;100845.59;;;24.52;43.83
19795;BME280;10057;59.402;17.866;2022-08-01T10:42:44;100852.44;;;24.56;43.57
19795;BME280;10057;59.402;17.866;2022-08-01T10:45:14;100848.44;;;24.51;43.44
19795;BME280;10057;59.402;17.866;2022-08-01T10:48:02;100850.16;;;24.52;43.64
19795;BME280;10057;59.402;17.866;2022-08-01T10:50:45;100846.44;;;24.63;43.75
19795;BME280;10057;59.402;17.866;2022-08-01T10:53:19;100839.81;;;24.75;43.46
19795;BME280;10057;59.402;17.866;2022-08-01T10:58:32;100840.06;;;24.91;42.85
19795;BME280;10057;59.402;17.866;2022-08-01T11:09:24;100839.97;;;25.30;42.46
19795;BME280;10057;59.402;17.866;2022-08-01T11:12:14;100831.59;;;25.41;42.30
19795;BME280;10057;59.402;17.866;2022-08-01T11:28:26;100829.53;;;25.53;40.49
19795;BME280;10057;59.402;17.866;2022-08-01T11:41:40;100837.97;;;25.22;40.38
19795;BME280;10057;59.402;17.866;2022-08-01T11:44:21;100834.84;;;25.27;40.68
19795;BME280;10057;59.402;17.866;2022-08-01T11:46:59;100842.78;;;25.38;40.38
19795;BME280;10057;59.402;17.866;2022-08-01T11:54:38;100833.84;;;25.46;39.28
19795;BME280;10057;59.402;17.866;2022-08-01T11:57:29;100832.16;;;25.45;39.57
19795;BME280;10057;59.402;17.866;2022-08-01T12:00:03;100834.88;;;25.45;39.77
19795;BME280;10057;59.402;17.866;2022-08-01T12:02:34;100826.25;;;25.49;39.77
19795;BME280;10057;59.402;17.866;2022-08-01T12:07:37;100833.50;;;25.59;38.73
19795;BME280;10057;59.402;17.866;2022-08-01T12:10:06;100831.19;;;25.64;38.64
19795;BME280;10057;59.402;17.866;2022-08-01T12:12:35;100836.31;;;25.67;38.51
19795;BME280;10057;59.402;17.866;2022-08-01T12:15:09;100838.59;;;25.71;37.75
19795;BME280;10057;59.402;17.866;2022-08-01T12:17:42;100838.97;;;25.76;37.90
19795;BME280;10057;59.402;17.866;2022-08-01T12:20:29;100832.69;;;25.76;37.06
19795;BME280;10057;59.402;17.866;2022-08-01T12:23:05;100835.97;;;25.80;37.24
19795;BME280;10057;59.402;17.866;2022-08-01T12:25:32;100837.91;;;25.87;36.92
19795;BME280;10057;59.402;17.866;2022-08-01T12:28:04;100827.28;;;25.94;36.94
19795;BME280;10057;59.402;17.866;2022-08-01T12:30:32;100823.47;;;26.05;36.79
19795;BME280;10057;59.402;17.866;2022-08-01T12:33:04;100833.97;;;26.17;36.30
19795;BME280;10057;59.402;17.866;2022-08-01T12:35:32;100829.38;;;26.18;36.28
19795;BME280;10057;59.402;17.866;2022-08-01T12:38:02;100817.66;;;26.17;36.21
19795;BME280;10057;59.402;17.866;2022-08-01T12:40:34;100825.50;;;26.20;36.30
19795;BME280;10057;59.402;17.866;2022-08-01T12:43:06;100829.38;;;26.18;35.98
19795;BME280;10057;59.402;17.866;2022-08-01T12:45:43;100824.47;;;26.21;36.38
19795;BME280;10057;59.402;17.866;2022-08-01T12:48:24;100822.72;;;26.30;36.11
19795;BME280;10057;59.402;17.866;2022-08-01T12:50:51;100816.41;;;26.30;36.07
19795;BME280;10057;59.402;17.866;2022-08-01T12:53:20;100807.78;;;26.34;35.97
19795;BME280;10057;59.402;17.866;2022-08-01T12:55:55;100813.25;;;26.42;36.04
19795;BME280;10057;59.402;17.866;2022-08-01T12:58:31;100807.94;;;26.51;35.71
19795;BME280;10057;59.402;17.866;2022-08-01T13:01:04;100797.41;;;26.56;35.39
19795;BME280;10057;59.402;17.866;2022-08-01T13:03:31;100817.84;;;26.60;35.31
19795;BME280;10057;59.402;17.866;2022-08-01T13:05:59;100801.53;;;26.60;34.71
19795;BME280;10057;59.402;17.866;2022-08-01T13:08:31;100797.41;;;26.56;34.56
19795;BME280;10057;59.402;17.866;2022-08-01T13:11:01;100801.09;;;26.46;34.64
19795;BME280;10057;59.402;17.866;2022-08-01T13:13:41;100791.84;;;26.39;34.03
19795;BME280;10057;59.402;17.866;2022-08-01T13:16:09;100794.50;;;26.31;34.22
19795;BME280;10057;59.402;17.866;2022-08-01T13:18:51;100787.34;;;26.30;34.56
19795;BME280;10057;59.402;17.866;2022-08-01T13:21:19;100792.78;;;26.30;34.58
19795;BME280;10057;59.402;17.866;2022-08-01T13:24:22;100784.63;;;26.30;34.40
19795;BME280;10057;59.402;17.866;2022-08-01T13:27:00;100786.03;;;26.34;34.09
19795;BME280;10057;59.402;17.866;2022-08-01T13:31:59;100789.66;;;26.43;34.04
19795;BME280;10057;59.402;17.866;2022-08-01T13:34:33;100789.81;;;26.41;33.88
19795;BME280;10057;59.402;17.866;2022-08-01T13:37:01;100784.38;;;26.41;34.07
19795;BME280;10057;59.402;17.866;2022-08-01T13:39:31;100777.59;;;26.45;33.77
19795;BME280;10057;59.402;17.866;2022-08-01T13:42:08;100781.94;;;26.56;33.51
19795;BME280;10057;59.402;17.866;2022-08-01T13:44:35;100785.94;;;26.70;33.65
19795;BME280;10057;59.402;17.866;2022-08-01T13:47:06;100778.94;;;26.93;33.07
19795;BME280;10057;59.402;17.866;2022-08-01T13:49:41;100787.88;;;27.12;32.92
19795;BME280;10057;59.402;17.866;2022-08-01T13:52:07;100783.19;;;27.22;32.90
19795;BME280;10057;59.402;17.866;2022-08-01T13:54:35;100791.50;;;27.21;32.54